createdAt,value
2019-01-27T00:00:44.896Z,913.16
2019-01-27T00:01:44.839Z,913.18
2019-01-27T00:02:44.863Z,913.17
2019-01-27T00:03:44.794Z,913.15
2019-01-27T00:04:44.779Z,913.16
2019-01-27T00:05:44.723Z,913.13
2019-01-27T00:06:44.732Z,913.14
2019-01-27T00:07:44.847Z,913.14
2019-01-27T00:08:44.648Z,913.13
2019-01-27T00:09:44.574Z,913.10
2019-01-27T00:10:44.646Z,913.08
2019-01-27T00:11:44.628Z,913.03
2019-01-27T00:12:44.483Z,913.02
2019-01-27T00:13:44.461Z,912.96
2019-01-27T00:14:44.431Z,912.97
2019-01-27T00:15:44.404Z,912.93
2019-01-27T00:16:44.343Z,912.94
2019-01-27T00:17:44.715Z,912.93
2019-01-27T00:18:44.314Z,912.91
2019-01-27T00:19:44.262Z,912.85
2019-01-27T00:20:44.246Z,912.84
2019-01-27T00:21:44.306Z,912.80
2019-01-27T00:22:44.163Z,912.80
2019-01-27T00:23:44.147Z,912.82
2019-01-27T00:24:44.108Z,912.79
2019-01-27T00:25:44.073Z,912.80
2019-01-27T00:26:44.071Z,912.78
2019-01-27T00:27:43.989Z,912.78
2019-01-27T00:28:43.963Z,912.76
2019-01-27T00:29:43.930Z,912.73
2019-01-27T00:30:43.918Z,912.79
2019-01-27T00:31:43.872Z,912.81
2019-01-27T00:32:43.827Z,912.84
2019-01-27T00:33:43.795Z,912.78
2019-01-27T00:34:43.813Z,912.80
2019-01-27T00:35:43.747Z,912.84
2019-01-27T00:36:43.697Z,912.86
2019-01-27T00:37:43.713Z,912.87
2019-01-27T00:38:43.640Z,912.86
2019-01-27T00:39:43.615Z,912.82
2019-01-27T00:40:43.574Z,912.83
2019-01-27T00:41:43.510Z,912.78
2019-01-27T00:42:43.506Z,912.75
2019-01-27T00:43:43.471Z,912.74
2019-01-27T00:44:43.428Z,912.75
2019-01-27T00:45:43.413Z,912.80
2019-01-27T00:46:43.380Z,912.76
2019-01-27T00:47:43.344Z,912.80
2019-01-27T00:48:43.294Z,912.79
2019-01-27T00:49:43.279Z,912.78
2019-01-27T00:50:43.395Z,912.85
2019-01-27T00:51:43.225Z,912.88
2019-01-27T00:52:43.167Z,912.89
2019-01-27T00:53:43.142Z,912.95
2019-01-27T00:54:43.097Z,912.96
2019-01-27T00:55:43.064Z,913.00
2019-01-27T00:56:43.048Z,913.05
2019-01-27T00:57:43.007Z,913.08
2019-01-27T00:58:42.957Z,913.12
2019-01-27T00:59:42.930Z,913.16
2019-01-27T01:00:42.910Z,913.13
2019-01-27T01:01:42.928Z,913.10
2019-01-27T01:02:42.851Z,913.13
2019-01-27T01:03:42.802Z,913.12
2019-01-27T01:04:42.789Z,913.12
2019-01-27T01:05:42.769Z,913.15
2019-01-27T01:06:42.712Z,913.13
2019-01-27T01:07:42.687Z,913.18
2019-01-27T01:08:42.664Z,913.18
2019-01-27T01:09:42.646Z,913.17
2019-01-27T01:10:42.701Z,913.16
2019-01-27T01:11:42.534Z,913.21
2019-01-27T01:12:42.552Z,913.24
2019-01-27T01:13:42.481Z,913.20
2019-01-27T01:14:42.433Z,913.19
2019-01-27T01:15:42.414Z,913.15
2019-01-27T01:16:42.373Z,913.15
2019-01-27T01:17:42.364Z,913.16
2019-01-27T01:18:42.421Z,913.18
2019-01-27T01:19:42.312Z,913.23
2019-01-27T01:20:42.345Z,913.24
2019-01-27T01:21:42.217Z,913.25
2019-01-27T01:22:42.177Z,913.24
2019-01-27T01:23:42.143Z,913.26
2019-01-27T01:24:42.367Z,913.30
2019-01-27T01:25:42.056Z,913.29
2019-01-27T01:26:42.039Z,913.27
2019-01-27T01:27:42.015Z,913.27
2019-01-27T01:28:42.000Z,913.32
2019-01-27T01:29:42.083Z,913.31
2019-01-27T01:30:41.920Z,913.29
2019-01-27T01:31:41.902Z,913.30
2019-01-27T01:32:41.886Z,913.33
2019-01-27T01:33:41.879Z,913.29
2019-01-27T01:34:41.775Z,913.30
2019-01-27T01:35:41.753Z,913.31
2019-01-27T01:36:41.688Z,913.33
2019-01-27T01:37:41.665Z,913.33
2019-01-27T01:38:41.646Z,913.36
2019-01-27T01:39:41.616Z,913.36
2019-01-27T01:40:41.915Z,913.35
2019-01-27T01:41:41.568Z,913.36
2019-01-27T01:42:41.534Z,913.36
2019-01-27T01:43:41.485Z,913.33
2019-01-27T01:44:41.455Z,913.35
2019-01-27T01:45:41.394Z,913.35
2019-01-27T01:46:41.474Z,913.37
2019-01-27T01:47:41.350Z,913.33
2019-01-27T01:48:41.332Z,913.34
2019-01-27T01:49:41.280Z,913.29
2019-01-27T01:50:41.253Z,913.28
2019-01-27T01:51:41.257Z,913.27
2019-01-27T01:52:41.184Z,913.26
2019-01-27T01:53:41.184Z,913.24
2019-01-27T01:54:41.130Z,913.21
2019-01-27T01:55:41.222Z,913.20
2019-01-27T01:56:41.044Z,913.14
2019-01-27T01:57:41.038Z,913.13
2019-01-27T01:58:40.991Z,913.10
2019-01-27T01:59:40.944Z,913.09
2019-01-27T02:00:40.934Z,913.09
2019-01-27T02:01:40.962Z,913.06
2019-01-27T02:02:40.862Z,913.04
2019-01-27T02:03:40.829Z,913.00
2019-01-27T02:04:40.784Z,912.99
2019-01-27T02:05:40.757Z,912.95
2019-01-27T02:06:40.735Z,912.91
2019-01-27T02:07:40.687Z,912.92
2019-01-27T02:08:40.683Z,912.93
2019-01-27T02:09:40.637Z,912.91
2019-01-27T02:10:40.586Z,912.86
2019-01-27T02:11:40.579Z,912.91
2019-01-27T02:12:40.511Z,912.86
2019-01-27T02:13:40.499Z,912.84
2019-01-27T02:14:40.442Z,912.84
2019-01-27T02:15:40.422Z,912.90
2019-01-27T02:16:40.428Z,912.93
2019-01-27T02:17:40.723Z,912.96
2019-01-27T02:18:40.334Z,912.97
2019-01-27T02:19:40.327Z,912.96
2019-01-27T02:20:40.261Z,913.00
2019-01-27T02:21:40.212Z,913.00
2019-01-27T02:22:40.206Z,913.01
2019-01-27T02:23:40.519Z,913.01
2019-01-27T02:24:40.125Z,913.05
2019-01-27T02:25:40.093Z,913.06
2019-01-27T02:26:40.058Z,913.10
2019-01-27T02:27:40.058Z,913.09
2019-01-27T02:28:40.011Z,913.07
2019-01-27T02:29:40.097Z,913.09
2019-01-27T02:30:39.933Z,913.05
2019-01-27T02:31:39.881Z,913.00
2019-01-27T02:32:39.858Z,912.96
2019-01-27T02:33:39.849Z,912.93
2019-01-27T02:34:39.787Z,912.91
2019-01-27T02:35:39.767Z,912.91
2019-01-27T02:36:39.846Z,913.00
2019-01-27T02:37:39.696Z,913.00
2019-01-27T02:38:39.676Z,912.99
2019-01-27T02:39:39.653Z,913.01
2019-01-27T02:40:40.494Z,913.05
2019-01-27T02:41:39.548Z,913.13
2019-01-27T02:42:39.532Z,913.20
2019-01-27T02:43:39.476Z,913.24
2019-01-27T02:44:39.444Z,913.32
2019-01-27T02:45:39.451Z,913.36
2019-01-27T02:47:39.572Z,913.40
2019-01-27T02:48:39.340Z,913.44
2019-01-27T02:49:39.293Z,913.44
2019-01-27T02:50:39.262Z,913.43
2019-01-27T02:51:39.225Z,913.40
2019-01-27T02:52:39.180Z,913.39
2019-01-27T02:53:39.416Z,913.40
2019-01-27T02:54:39.118Z,913.44
2019-01-27T02:55:39.102Z,913.34
2019-01-27T02:56:39.059Z,913.37
2019-01-27T02:57:39.005Z,913.39
2019-01-27T02:58:38.983Z,913.46
2019-01-27T02:59:38.972Z,913.53
2019-01-27T03:00:38.910Z,913.55
2019-01-27T03:01:38.961Z,913.56
2019-01-27T03:02:38.867Z,913.52
2019-01-27T03:03:38.844Z,913.54
2019-01-27T03:04:38.804Z,913.56
2019-01-27T03:05:38.774Z,913.70
2019-01-27T03:06:38.726Z,913.83
2019-01-27T03:07:38.738Z,913.84
2019-01-27T03:08:38.668Z,913.80
2019-01-27T03:09:38.641Z,913.67
2019-01-27T03:10:38.592Z,913.65
2019-01-27T03:11:38.565Z,913.76
2019-01-27T03:12:38.530Z,913.84
2019-01-27T03:13:38.496Z,913.85
2019-01-27T03:14:38.821Z,913.80
2019-01-27T03:15:38.447Z,913.80
2019-01-27T03:16:38.383Z,913.75
2019-01-27T03:17:38.373Z,913.75
2019-01-27T03:18:38.345Z,913.77
2019-01-27T03:19:38.284Z,913.78
2019-01-27T03:20:38.366Z,913.75
2019-01-27T03:21:38.230Z,913.73
2019-01-27T03:22:38.191Z,913.74
2019-01-27T03:23:38.182Z,913.72
2019-01-27T03:24:38.123Z,913.67
2019-01-27T03:25:38.105Z,913.62
2019-01-27T03:26:38.087Z,913.64
2019-01-27T03:27:38.057Z,913.63
2019-01-27T03:28:38.008Z,913.62
2019-01-27T03:29:37.962Z,913.58
2019-01-27T03:30:37.932Z,913.59
2019-01-27T03:31:37.888Z,913.60
2019-01-27T03:32:37.890Z,913.59
2019-01-27T03:33:37.839Z,913.55
2019-01-27T03:34:37.803Z,913.56
2019-01-27T03:35:37.795Z,913.55
2019-01-27T03:36:37.747Z,913.56
2019-01-27T03:37:37.706Z,913.58
2019-01-27T03:38:37.676Z,913.58
2019-01-27T03:39:37.612Z,913.52
2019-01-27T03:40:37.578Z,913.52
2019-01-27T03:41:37.727Z,913.47
2019-01-27T03:42:37.539Z,913.45
2019-01-27T03:43:37.509Z,913.48
2019-01-27T03:44:37.455Z,913.46
2019-01-27T03:45:37.416Z,913.48
2019-01-27T03:46:37.433Z,913.44
2019-01-27T03:47:37.367Z,913.39
2019-01-27T03:48:37.338Z,913.35
2019-01-27T03:49:37.308Z,913.33
2019-01-27T03:50:37.261Z,913.30
2019-01-27T03:51:37.229Z,913.26
2019-01-27T03:52:37.241Z,913.26
2019-01-27T03:53:37.177Z,913.25
2019-01-27T03:54:37.134Z,913.23
2019-01-27T03:55:37.094Z,913.19
2019-01-27T03:56:37.089Z,913.24
2019-01-27T03:57:37.038Z,913.20
2019-01-27T03:58:36.995Z,913.19
2019-01-27T03:59:36.943Z,913.16
2019-01-27T04:00:36.914Z,913.14
2019-01-27T04:01:36.893Z,913.08
2019-01-27T04:02:36.868Z,913.08
2019-01-27T04:03:36.860Z,913.06
2019-01-27T04:04:36.859Z,913.03
2019-01-27T04:05:36.802Z,913.03
2019-01-27T04:06:36.717Z,913.03
2019-01-27T04:07:36.688Z,912.97
2019-01-27T04:08:36.661Z,912.99
2019-01-27T04:09:36.640Z,912.96
2019-01-27T04:10:36.592Z,912.94
2019-01-27T04:11:36.555Z,912.97
2019-01-27T04:12:36.533Z,912.95
2019-01-27T04:13:36.755Z,912.96
2019-01-27T04:14:36.457Z,913.01
2019-01-27T04:15:36.447Z,912.98
2019-01-27T04:16:36.401Z,913.02
2019-01-27T04:17:36.360Z,913.01
2019-01-27T04:18:36.345Z,912.98
2019-01-27T04:19:36.283Z,913.00
2019-01-27T04:20:36.259Z,912.98
2019-01-27T04:21:36.219Z,912.99
2019-01-27T04:22:36.184Z,913.02
2019-01-27T04:23:36.227Z,912.99
2019-01-27T04:24:36.129Z,912.96
2019-01-27T04:25:36.161Z,912.99
2019-01-27T04:26:36.085Z,913.00
2019-01-27T04:27:36.075Z,913.05
2019-01-27T04:28:35.992Z,913.02
2019-01-27T04:29:35.964Z,913.03
2019-01-27T04:30:35.924Z,912.99
2019-01-27T04:31:35.901Z,912.99
2019-01-27T04:32:35.852Z,912.97
2019-01-27T04:33:35.828Z,912.97
2019-01-27T04:34:35.879Z,912.93
2019-01-27T04:35:35.753Z,912.92
2019-01-27T04:36:35.736Z,912.86
2019-01-27T04:37:35.677Z,912.87
2019-01-27T04:38:35.677Z,912.86
2019-01-27T04:39:35.624Z,912.80
2019-01-27T04:40:35.858Z,912.78
2019-01-27T04:41:35.563Z,912.76
2019-01-27T04:42:35.529Z,912.73
2019-01-27T04:43:35.489Z,912.70
2019-01-27T04:44:35.460Z,912.67
2019-01-27T04:45:35.450Z,912.69
2019-01-27T04:46:35.560Z,912.66
2019-01-27T04:47:35.342Z,912.64
2019-01-27T04:48:35.305Z,912.66
2019-01-27T04:49:35.310Z,912.63
2019-01-27T04:50:35.248Z,912.64
2019-01-27T04:51:35.225Z,912.63
2019-01-27T04:52:35.447Z,912.62
2019-01-27T04:53:35.173Z,912.63
2019-01-27T04:54:35.131Z,912.64
2019-01-27T04:55:35.098Z,912.62
2019-01-27T04:56:35.050Z,912.61
2019-01-27T04:57:35.030Z,912.56
2019-01-27T04:58:35.002Z,912.58
2019-01-27T04:59:34.961Z,912.60
2019-01-27T05:00:34.921Z,912.58
2019-01-27T05:01:34.893Z,912.59
2019-01-27T05:02:34.858Z,912.57
2019-01-27T05:03:34.828Z,912.59
2019-01-27T05:04:34.802Z,912.58
2019-01-27T05:05:34.758Z,912.56
2019-01-27T05:06:34.722Z,912.57
2019-01-27T05:07:34.705Z,912.53
2019-01-27T05:08:34.649Z,912.54
2019-01-27T05:09:34.622Z,912.50
2019-01-27T05:10:34.575Z,912.45
2019-01-27T05:11:34.565Z,912.40
2019-01-27T05:12:34.528Z,912.41
2019-01-27T05:13:34.592Z,912.35
2019-01-27T05:14:34.460Z,912.36
2019-01-27T05:15:34.430Z,912.38
2019-01-27T05:16:34.393Z,912.38
2019-01-27T05:17:34.366Z,912.39
2019-01-27T05:18:34.319Z,912.35
2019-01-27T05:19:34.381Z,912.36
2019-01-27T05:20:34.228Z,912.35
2019-01-27T05:21:34.463Z,912.30
2019-01-27T05:22:34.186Z,912.32
2019-01-27T05:23:34.160Z,912.34
2019-01-27T05:24:34.216Z,912.36
2019-01-27T05:25:34.108Z,912.38
2019-01-27T05:26:34.048Z,912.40
2019-01-27T05:27:34.084Z,912.38
2019-01-27T05:28:33.989Z,912.38
2019-01-27T05:29:33.955Z,912.35
2019-01-27T05:30:33.931Z,912.34
2019-01-27T05:31:33.903Z,912.33
2019-01-27T05:32:33.862Z,912.37
2019-01-27T05:33:33.825Z,912.37
2019-01-27T05:34:33.792Z,912.36
2019-01-27T05:35:33.746Z,912.41
2019-01-27T05:36:33.745Z,912.39
2019-01-27T05:37:33.689Z,912.40
2019-01-27T05:38:33.647Z,912.39
2019-01-27T05:39:33.616Z,912.43
2019-01-27T05:40:33.596Z,912.44
2019-01-27T05:41:33.569Z,912.43
2019-01-27T05:42:33.506Z,912.42
2019-01-27T05:43:33.484Z,912.41
2019-01-27T05:44:33.444Z,912.40
2019-01-27T05:45:33.395Z,912.40
2019-01-27T05:46:33.580Z,912.35
2019-01-27T05:47:33.344Z,912.34
2019-01-27T05:48:33.307Z,912.30
2019-01-27T05:49:33.277Z,912.26
2019-01-27T05:50:33.252Z,912.23
2019-01-27T05:51:33.199Z,912.21
2019-01-27T05:52:33.332Z,912.26
2019-01-27T05:53:33.158Z,912.29
2019-01-27T05:54:33.111Z,912.27
2019-01-27T05:55:33.056Z,912.31
2019-01-27T05:56:33.035Z,912.30
2019-01-27T05:57:32.999Z,912.35
2019-01-27T05:58:33.034Z,912.37
2019-01-27T05:59:32.930Z,912.36
2019-01-27T06:00:32.900Z,912.34
2019-01-27T06:01:32.873Z,912.36
2019-01-27T06:02:32.848Z,912.39
2019-01-27T06:03:32.813Z,912.39
2019-01-27T06:04:32.764Z,912.40
2019-01-27T06:05:32.726Z,912.39
2019-01-27T06:06:32.719Z,912.40
2019-01-27T06:07:32.675Z,912.38
2019-01-27T06:08:32.675Z,912.40
2019-01-27T06:09:32.584Z,912.40
2019-01-27T06:10:32.578Z,912.38
2019-01-27T06:11:32.548Z,912.40
2019-01-27T06:12:32.506Z,912.39
2019-01-27T06:13:32.860Z,912.43
2019-01-27T06:14:32.434Z,912.42
2019-01-27T06:15:32.415Z,912.39
2019-01-27T06:16:32.379Z,912.44
2019-01-27T06:17:32.337Z,912.42
2019-01-27T06:18:32.302Z,912.43
2019-01-27T06:19:32.628Z,912.43
2019-01-27T06:20:32.245Z,912.42
2019-01-27T06:21:32.215Z,912.41
2019-01-27T06:22:32.177Z,912.42
2019-01-27T06:23:32.163Z,912.44
2019-01-27T06:24:32.100Z,912.43
2019-01-27T06:25:32.281Z,912.38
2019-01-27T06:26:32.063Z,912.43
2019-01-27T06:27:32.050Z,912.43
2019-01-27T06:28:31.958Z,912.43
2019-01-27T06:29:31.919Z,912.44
2019-01-27T06:30:31.900Z,912.48
2019-01-27T06:31:31.889Z,912.45
2019-01-27T06:32:31.838Z,912.47
2019-01-27T06:33:31.828Z,912.48
2019-01-27T06:34:31.760Z,912.49
2019-01-27T06:35:31.712Z,912.55
2019-01-27T06:36:31.757Z,912.54
2019-01-27T06:37:31.668Z,912.60
2019-01-27T06:38:31.634Z,912.60
2019-01-27T06:39:31.608Z,912.63
2019-01-27T06:40:31.570Z,912.62
2019-01-27T06:41:31.557Z,912.60
2019-01-27T06:42:31.484Z,912.60
2019-01-27T06:43:31.513Z,912.63
2019-01-27T06:44:31.445Z,912.64
2019-01-27T06:45:31.445Z,912.66
2019-01-27T06:46:31.366Z,912.69
2019-01-27T06:47:31.618Z,912.70
2019-01-27T06:48:31.314Z,912.72
2019-01-27T06:49:31.284Z,912.70
2019-01-27T06:50:31.222Z,912.70
2019-01-27T06:51:31.223Z,912.70
2019-01-27T06:52:31.164Z,912.72
2019-01-27T06:53:31.176Z,912.70
2019-01-27T06:54:31.092Z,912.72
2019-01-27T06:55:31.066Z,912.79
2019-01-27T06:56:31.020Z,912.75
2019-01-27T06:57:31.045Z,912.74
2019-01-27T06:58:30.936Z,912.73
2019-01-27T06:59:30.922Z,912.70
2019-01-27T07:00:30.898Z,912.74
2019-01-27T07:01:30.877Z,912.72
2019-01-27T07:02:30.816Z,912.77
2019-01-27T07:03:30.794Z,912.78
2019-01-27T07:04:30.774Z,912.74
2019-01-27T07:05:30.748Z,912.72
2019-01-27T07:06:30.692Z,912.73
2019-01-27T07:07:30.660Z,912.70
2019-01-27T07:08:30.624Z,912.69
2019-01-27T07:09:30.743Z,912.66
2019-01-27T07:10:30.566Z,912.69
2019-01-27T07:11:30.518Z,912.68
2019-01-27T07:12:30.502Z,912.71
2019-01-27T07:13:30.442Z,912.74
2019-01-27T07:14:30.426Z,912.76
2019-01-27T07:15:30.529Z,912.79
2019-01-27T07:16:30.372Z,912.81
2019-01-27T07:17:30.323Z,912.79
2019-01-27T07:18:30.305Z,912.82
2019-01-27T07:19:30.255Z,912.79
2019-01-27T07:20:30.297Z,912.82
2019-01-27T07:21:30.207Z,912.79
2019-01-27T07:22:30.160Z,912.79
2019-01-27T07:23:30.099Z,912.77
2019-01-27T07:24:30.107Z,912.80
2019-01-27T07:25:30.057Z,912.81
2019-01-27T07:26:30.028Z,912.79
2019-01-27T07:27:29.985Z,912.85
2019-01-27T07:28:29.953Z,912.83
2019-01-27T07:29:29.957Z,912.80
2019-01-27T07:30:29.874Z,912.79
2019-01-27T07:31:29.855Z,912.80
2019-01-27T07:32:29.812Z,912.79
2019-01-27T07:33:29.780Z,912.78
2019-01-27T07:34:29.757Z,912.81
2019-01-27T07:35:29.732Z,912.82
2019-01-27T07:36:29.726Z,912.84
2019-01-27T07:37:29.646Z,912.88
2019-01-27T07:38:29.616Z,912.93
2019-01-27T07:39:29.572Z,912.95
2019-01-27T07:40:29.544Z,912.96
2019-01-27T07:41:29.752Z,912.93
2019-01-27T07:42:29.481Z,912.93
2019-01-27T07:43:29.441Z,912.94
2019-01-27T07:44:29.410Z,912.97
2019-01-27T07:45:29.420Z,912.97
2019-01-27T07:46:29.336Z,912.97
2019-01-27T07:47:29.470Z,913.04
2019-01-27T07:48:29.265Z,913.04
2019-01-27T07:49:29.253Z,913.01
2019-01-27T07:50:29.209Z,913.00
2019-01-27T07:51:29.182Z,912.96
2019-01-27T07:52:29.272Z,912.93
2019-01-27T07:53:29.116Z,912.96
2019-01-27T07:54:29.092Z,912.97
2019-01-27T07:55:29.034Z,912.97
2019-01-27T07:56:29.020Z,912.96
2019-01-27T07:57:28.979Z,912.94
2019-01-27T07:58:28.964Z,912.99
2019-01-27T07:59:28.894Z,913.04
2019-01-27T08:00:28.856Z,913.00
2019-01-27T08:01:28.858Z,913.01
2019-01-27T08:02:28.786Z,913.02
2019-01-27T08:03:28.776Z,913.03
2019-01-27T08:04:28.745Z,913.00
2019-01-27T08:05:28.710Z,913.04
2019-01-27T08:06:28.672Z,913.04
2019-01-27T08:07:28.645Z,913.03
2019-01-27T08:08:29.009Z,913.07
2019-01-27T08:09:28.554Z,913.06
2019-01-27T08:10:28.524Z,913.11
2019-01-27T08:11:28.519Z,913.12
2019-01-27T08:12:28.470Z,913.14
2019-01-27T08:13:28.479Z,913.14
2019-01-27T08:14:28.569Z,913.11
2019-01-27T08:15:28.371Z,913.10
2019-01-27T08:16:28.348Z,913.06
2019-01-27T08:17:28.300Z,913.09
2019-01-27T08:18:28.266Z,913.09
2019-01-27T08:19:28.238Z,913.09
2019-01-27T08:20:28.176Z,913.12
2019-01-27T08:21:28.172Z,913.11
2019-01-27T08:22:28.148Z,913.09
2019-01-27T08:23:28.101Z,913.02
2019-01-27T08:24:28.073Z,913.01
2019-01-27T08:25:28.034Z,912.98
2019-01-27T08:26:28.019Z,912.94
2019-01-27T08:27:27.972Z,912.92
2019-01-27T08:28:27.934Z,912.95
2019-01-27T08:29:27.887Z,913.00
2019-01-27T08:30:27.854Z,913.03
2019-01-27T08:31:27.831Z,913.05
2019-01-27T08:32:27.782Z,913.09
2019-01-27T08:33:27.770Z,913.16
2019-01-27T08:34:27.739Z,913.19
2019-01-27T08:35:27.693Z,913.26
2019-01-27T08:36:27.686Z,913.26
2019-01-27T08:37:27.629Z,913.26
2019-01-27T08:38:27.598Z,913.29
2019-01-27T08:39:27.576Z,913.34
2019-01-27T08:40:27.875Z,913.36
2019-01-27T08:41:27.492Z,913.33
2019-01-27T08:42:27.480Z,913.35
2019-01-27T08:43:27.460Z,913.39
2019-01-27T08:44:27.381Z,913.41
2019-01-27T08:45:27.364Z,913.42
2019-01-27T08:46:27.389Z,913.41
2019-01-27T08:47:27.301Z,913.46
2019-01-27T08:48:27.260Z,913.52
2019-01-27T08:49:27.218Z,913.50
2019-01-27T08:50:27.178Z,913.53
2019-01-27T08:51:27.232Z,913.51
2019-01-27T08:52:27.128Z,913.50
2019-01-27T08:53:27.078Z,913.52
2019-01-27T08:54:27.056Z,913.52
2019-01-27T08:55:27.028Z,913.56
2019-01-27T08:56:26.999Z,913.57
2019-01-27T08:57:26.955Z,913.62
2019-01-27T08:58:26.926Z,913.64
2019-01-27T08:59:26.879Z,913.66
2019-01-27T09:00:26.868Z,913.68
2019-01-27T09:01:26.817Z,913.65
2019-01-27T09:02:26.799Z,913.67
2019-01-27T09:03:26.759Z,913.61
2019-01-27T09:04:26.732Z,913.60
2019-01-27T09:05:26.677Z,913.62
2019-01-27T09:06:26.649Z,913.62
2019-01-27T09:07:26.625Z,913.62
2019-01-27T09:08:26.598Z,913.65
2019-01-27T09:09:26.546Z,913.65
2019-01-27T09:10:26.512Z,913.67
2019-01-27T09:11:26.490Z,913.69
2019-01-27T09:12:26.476Z,913.70
2019-01-27T09:13:26.396Z,913.72
2019-01-27T09:14:26.398Z,913.75
2019-01-27T09:15:26.350Z,913.73
2019-01-27T09:16:26.326Z,913.75
2019-01-27T09:17:26.288Z,913.75
2019-01-27T09:18:26.262Z,913.77
2019-01-27T09:19:26.206Z,913.73
2019-01-27T09:20:26.176Z,913.73
2019-01-27T09:21:26.143Z,913.76
2019-01-27T09:22:26.130Z,913.75
2019-01-27T09:23:26.098Z,913.79
2019-01-27T09:24:26.044Z,913.82
2019-01-27T09:25:26.050Z,913.85
2019-01-27T09:26:26.006Z,913.84
2019-01-27T09:27:25.953Z,913.89
2019-01-27T09:28:25.918Z,913.88
2019-01-27T09:29:25.870Z,913.89
2019-01-27T09:30:25.850Z,913.85
2019-01-27T09:31:25.787Z,913.84
2019-01-27T09:32:25.789Z,913.84
2019-01-27T09:33:25.751Z,913.79
2019-01-27T09:34:25.708Z,913.78
2019-01-27T09:35:25.656Z,913.79
2019-01-27T09:36:25.668Z,913.76
2019-01-27T09:37:25.749Z,913.81
2019-01-27T09:38:25.561Z,913.82
2019-01-27T09:39:25.528Z,913.85
2019-01-27T09:40:25.515Z,913.89
2019-01-27T09:41:25.516Z,913.91
2019-01-27T09:42:25.441Z,913.94
2019-01-27T09:43:25.570Z,913.98
2019-01-27T09:44:25.375Z,914.00
2019-01-27T09:45:25.371Z,914.02
2019-01-27T09:46:25.303Z,914.00
2019-01-27T09:47:25.269Z,914.01
2019-01-27T09:48:25.233Z,914.04
2019-01-27T09:49:25.346Z,914.07
2019-01-27T09:50:25.175Z,914.07
2019-01-27T09:51:25.134Z,914.07
2019-01-27T09:52:25.074Z,914.07
2019-01-27T09:53:25.066Z,914.06
2019-01-27T09:54:25.042Z,913.98
2019-01-27T09:55:25.001Z,914.03
2019-01-27T09:56:24.970Z,914.02
2019-01-27T09:57:24.940Z,913.99
2019-01-27T09:58:24.877Z,913.98
2019-01-27T09:59:24.864Z,913.94
2019-01-27T10:00:24.853Z,913.94
2019-01-27T10:01:24.798Z,913.95
2019-01-27T10:02:24.766Z,913.96
2019-01-27T10:03:24.748Z,913.99
2019-01-27T10:04:24.715Z,914.00
2019-01-27T10:05:24.657Z,914.04
2019-01-27T10:06:24.638Z,914.11
2019-01-27T10:07:24.593Z,914.16
2019-01-27T10:08:24.541Z,914.12
2019-01-27T10:09:24.679Z,914.14
2019-01-27T10:10:24.546Z,914.10
2019-01-27T10:11:26.443Z,914.10
2019-01-27T10:12:24.401Z,914.10
2019-01-27T10:13:24.400Z,914.10
2019-01-27T10:14:24.379Z,914.08
2019-01-27T10:15:24.483Z,914.13
2019-01-27T10:16:24.296Z,914.08
2019-01-27T10:17:24.305Z,914.13
2019-01-27T10:18:24.878Z,914.15
2019-01-27T10:19:24.210Z,914.18
2019-01-27T10:20:24.201Z,914.20
2019-01-27T10:21:24.117Z,914.22
2019-01-27T10:22:24.068Z,914.24
2019-01-27T10:23:24.034Z,914.23
2019-01-27T10:24:24.033Z,914.24
2019-01-27T10:25:23.983Z,914.24
2019-01-27T10:27:23.922Z,914.24
2019-01-27T10:28:23.873Z,914.22
2019-01-27T10:29:23.851Z,914.28
2019-01-27T10:30:23.819Z,914.27
2019-01-27T10:31:23.796Z,914.33
2019-01-27T10:32:23.752Z,914.31
2019-01-27T10:33:23.728Z,914.35
2019-01-27T10:34:23.713Z,914.35
2019-01-27T10:35:23.660Z,914.38
2019-01-27T10:36:23.609Z,914.40
2019-01-27T10:37:23.602Z,914.34
2019-01-27T10:38:23.548Z,914.34
2019-01-27T10:39:23.515Z,914.33
2019-01-27T10:40:23.481Z,914.33
2019-01-27T10:41:23.440Z,914.34
2019-01-27T10:42:23.399Z,914.32
2019-01-27T10:43:23.380Z,914.34
2019-01-27T10:44:23.335Z,914.33
2019-01-27T10:45:23.366Z,914.32
2019-01-27T10:46:23.263Z,914.32
2019-01-27T10:47:23.236Z,914.34
2019-01-27T10:48:23.204Z,914.36
2019-01-27T10:49:23.166Z,914.33
2019-01-27T10:50:23.125Z,914.34
2019-01-27T10:51:23.126Z,914.39
2019-01-27T10:52:23.096Z,914.33
2019-01-27T10:53:23.026Z,914.38
2019-01-27T10:54:23.002Z,914.38
2019-01-27T10:55:22.972Z,914.39
2019-01-27T10:56:22.932Z,914.43
2019-01-27T10:57:22.898Z,914.46
2019-01-27T10:58:22.851Z,914.44
2019-01-27T10:59:22.837Z,914.42
2019-01-27T11:00:22.806Z,914.47
2019-01-27T11:01:22.777Z,914.50
2019-01-27T11:02:22.804Z,914.54
2019-01-27T11:03:22.690Z,914.54
2019-01-27T11:04:22.670Z,914.59
2019-01-27T11:05:22.639Z,914.59
2019-01-27T11:06:22.602Z,914.65
2019-01-27T11:07:22.713Z,914.62
2019-01-27T11:08:22.535Z,914.61
2019-01-27T11:09:22.508Z,914.62
2019-01-27T11:10:22.452Z,914.59
2019-01-27T11:11:22.413Z,914.65
2019-01-27T11:12:22.393Z,914.66
2019-01-27T11:13:22.643Z,914.63
2019-01-27T11:14:22.355Z,914.64
2019-01-27T11:15:22.324Z,914.65
2019-01-27T11:16:22.261Z,914.69
2019-01-27T11:17:22.224Z,914.68
2019-01-27T11:18:22.176Z,914.71
2019-01-27T11:19:22.177Z,914.69
2019-01-27T11:20:22.131Z,914.66
2019-01-27T11:21:22.148Z,914.67
2019-01-27T11:22:22.066Z,914.67
2019-01-27T11:23:22.024Z,914.71
2019-01-27T11:24:22.000Z,914.69
2019-01-27T11:25:21.950Z,914.70
2019-01-27T11:26:21.934Z,914.70
2019-01-27T11:27:21.929Z,914.71
2019-01-27T11:28:21.857Z,914.71
2019-01-27T11:29:21.827Z,914.76
2019-01-27T11:30:21.791Z,914.75
2019-01-27T11:31:21.782Z,914.77
2019-01-27T11:32:21.730Z,914.77
2019-01-27T11:33:21.690Z,914.77
2019-01-27T11:34:21.885Z,914.80
2019-01-27T11:35:21.618Z,914.76
2019-01-27T11:36:21.602Z,914.76
2019-01-27T11:37:21.564Z,914.78
2019-01-27T11:38:21.543Z,914.80
2019-01-27T11:39:21.479Z,914.83
2019-01-27T11:40:21.794Z,914.83
2019-01-27T11:41:21.439Z,914.86
2019-01-27T11:42:21.382Z,914.83
2019-01-27T11:43:21.383Z,914.86
2019-01-27T11:44:21.383Z,914.85
2019-01-27T11:45:21.374Z,914.91
2019-01-27T11:46:21.463Z,914.88
2019-01-27T11:47:21.198Z,914.87
2019-01-27T11:48:21.179Z,914.86
2019-01-27T11:49:21.179Z,914.89
2019-01-27T11:50:21.143Z,914.93
2019-01-27T11:51:21.093Z,914.91
2019-01-27T11:52:21.074Z,914.92
2019-01-27T11:53:21.025Z,914.93
2019-01-27T11:54:20.983Z,914.95
2019-01-27T11:55:20.940Z,915.04
2019-01-27T11:56:20.922Z,914.99
2019-01-27T11:57:21.172Z,915.02
2019-01-27T11:58:20.854Z,915.03
2019-01-27T11:59:20.823Z,915.05
2019-01-27T12:00:20.784Z,915.04
2019-01-27T12:01:20.761Z,915.08
2019-01-27T12:02:20.799Z,915.07
2019-01-27T12:03:20.670Z,915.08
2019-01-27T12:04:20.662Z,915.10
2019-01-27T12:05:20.635Z,915.10
2019-01-27T12:06:20.572Z,915.12
2019-01-27T12:07:20.697Z,915.08
2019-01-27T12:08:20.506Z,915.13
2019-01-27T12:09:20.468Z,915.11
2019-01-27T12:10:20.450Z,915.13
2019-01-27T12:11:20.428Z,915.10
2019-01-27T12:12:20.377Z,915.10
2019-01-27T12:14:20.296Z,915.07
2019-01-27T12:15:20.297Z,915.07
2019-01-27T12:16:20.245Z,915.08
2019-01-27T12:17:20.207Z,915.09
2019-01-27T12:18:20.170Z,915.07
2019-01-27T12:19:20.145Z,915.04
2019-01-27T12:20:20.116Z,915.09
2019-01-27T12:21:20.088Z,915.14
2019-01-27T12:22:20.059Z,915.17
2019-01-27T12:23:20.035Z,915.15
2019-01-27T12:24:19.963Z,915.21
2019-01-27T12:25:19.944Z,915.23
2019-01-27T12:26:19.903Z,915.23
2019-01-27T12:27:19.947Z,915.24
2019-01-27T12:28:19.871Z,915.20
2019-01-27T12:29:19.804Z,915.22
2019-01-27T12:30:19.788Z,915.20
2019-01-27T12:31:19.758Z,915.20